sensor_id;sensor_type;location;lat;lon;timestamp;pressure;altitude;pressure_sealevel;temperature;humidity
39823;BME280;25499;53.958;10.970;2023-01-28T06:35:18;102676.41;;;-1.14;100.00
39823;BME280;25499;53.958;10.970;2023-01-28T06:37:43;102669.53;;;-1.15;100.00
39823;BME280;25499;53.958;10.970;2023-01-28T06:40:10;102672.84;;;-0.82;100.00
39823;BME280;25499;53.958;10.970;2023-01-28T06:42:35;102668.59;;;-0.94;100.00
39823;BME280;25499;53.958;10.970;2023-01-28T06:45:01;102671.22;;;-1.04;100.00
39823;BME280;25499;53.958;10.970;2023-01-28T06:47:26;102681.28;;;-0.71;100.00
39823;BME280;25499;53.958;10.970;2023-01-28T06:49:51;102676.53;;;-1.13;100.00
39823;BME280;25499;53.958;10.970;2023-01-28T06:52:17;102683.91;;;-1.27;100.00
39823;BME280;25499;53.958;10.970;2023-01-28T06:54:42;102688.28;;;-1.48;100.00
39823;BME280;25499;53.958;10.970;2023-01-28T06:57:08;102690.03;;;-1.59;100.00
39823;BME280;25499;53.958;10.970;2023-01-28T06:59:33;102696.44;;;-1.64;100.00
39823;BME280;25499;53.958;10.970;2023-01-28T07:01:58;102712.50;;;-1.65;100.00
39823;BME280;25499;53.958;10.970;2023-01-28T07:04:24;102729.47;;;-1.56;100.00
39823;BME280;25499;53.958;10.970;2023-01-28T07:06:49;102725.59;;;-1.51;100.00
39823;BME280;25499;53.958;10.970;2023-01-28T07:09:15;102724.81;;;-1.50;100.00
39823;BME280;25499;53.958;10.970;2023-01-28T07:11:40;102732.84;;;-1.45;100.00
39823;BME280;25499;53.958;10.970;2023-01-28T07:14:06;102727.66;;;-1.57;100.00
39823;BME280;25499;53.958;10.970;2023-01-28T07:16:31;102727.41;;;-1.60;100.00
39823;BME280;25499;53.958;10.970;2023-01-28T07:18:57;102731.63;;;-1.60;100.00
39823;BME280;25499;53.958;10.970;2023-01-28T07:21:22;102741.69;;;-1.52;100.00
39823;BME280;25499;53.958;10.970;2023-01-28T07:23:47;102745.22;;;-1.50;100.00
39823;BME280;25499;53.958;10.970;2023-01-28T07:26:13;102744.09;;;-1.53;100.00
39823;BME280;25499;53.958;10.970;2023-01-28T07:28:39;102749.09;;;-1.55;100.00
39823;BME280;25499;53.958;10.970;2023-01-28T07:31:05;102749.97;;;-1.44;100.00
39823;BME280;25499;53.958;10.970;2023-01-28T07:33:30;102740.31;;;-1.36;100.00
39823;BME280;25499;53.958;10.970;2023-01-28T07:35:56;102731.09;;;-1.34;100.00
39823;BME280;25499;53.958;10.970;2023-01-28T07:38:22;102736.00;;;-1.37;100.00
39823;BME280;25499;53.958;10.970;2023-01-28T07:40:47;102744.00;;;-1.33;100.00
39823;BME280;25499;53.958;10.970;2023-01-28T07:43:13;102733.63;;;-1.24;100.00
39823;BME280;25499;53.958;10.970;2023-01-28T07:45:38;102721.44;;;-1.38;100.00
39823;BME280;25499;53.958;10.970;2023-01-28T07:48:05;102733.31;;;-1.39;100.00
39823;BME280;25499;53.958;10.970;2023-01-28T07:50:33;102733.56;;;-1.36;100.00
39823;BME280;25499;53.958;10.970;2023-01-28T07:53:02;102746.09;;;-1.39;100.00
39823;BME280;25499;53.958;10.970;2023-01-28T07:55:28;102746.09;;;-1.39;100.00
39823;BME280;25499;53.958;10.970;2023-01-28T07:57:56;102753.34;;;-1.33;100.00
39823;BME280;25499;53.958;10.970;2023-01-28T08:00:23;102764.84;;;-1.38;100.00
39823;BME280;25499;53.958;10.970;2023-01-28T08:02:49;102759.31;;;-1.33;100.00
39823;BME280;25499;53.958;10.970;2023-01-28T08:05:18;102753.50;;;-1.42;100.00
39823;BME280;25499;53.958;10.970;2023-01-28T08:07:45;102747.66;;;-1.51;100.00
39823;BME280;25499;53.958;10.970;2023-01-28T08:10:18;102761.34;;;-1.51;100.00
39823;BME280;25499;53.958;10.970;2023-01-28T08:12:57;102757.84;;;-1.63;100.00
39823;BME280;25499;53.958;10.970;2023-01-28T08:15:26;102757.84;;;-1.63;100.00
39823;BME280;25499;53.958;10.970;2023-01-28T08:17:56;102758.97;;;-1.59;100.00
39823;BME280;25499;53.958;10.970;2023-01-28T08:20:23;102752.19;;;-1.59;100.00
39823;BME280;25499;53.958;10.970;2023-01-28T08:22:49;102746.78;;;-1.52;100.00
39823;BME280;25499;53.958;10.970;2023-01-28T08:25:14;102755.66;;;-1.36;100.00
39823;BME280;25499;53.958;10.970;2023-01-28T08:27:39;102753.69;;;-1.51;100.00
39823;BME280;25499;53.958;10.970;2023-01-28T08:30:06;102762.84;;;-1.42;100.00
39823;BME280;25499;53.958;10.970;2023-01-28T08:32:33;102783.88;;;-1.13;100.00
39823;BME280;25499;53.958;10.970;2023-01-28T08:34:59;102768.91;;;-1.08;100.00
39823;BME280;25499;53.958;10.970;2023-01-28T08:37:24;102771.56;;;-0.84;100.00
39823;BME280;25499;53.958;10.970;2023-01-28T08:39:50;102777.94;;;-0.67;100.00
39823;BME280;25499;53.958;10.970;2023-01-28T08:42:16;102781.19;;;-0.58;100.00
39823;BME280;25499;53.958;10.970;2023-01-28T08:44:41;102784.13;;;-0.42;100.00
39823;BME280;25499;53.958;10.970;2023-01-28T08:47:07;102788.56;;;-0.27;100.00
39823;BME280;25499;53.958;10.970;2023-01-28T08:49:32;102807.09;;;0.04;100.00
39823;BME280;25499;53.958;10.970;2023-01-28T08:51:57;102793.63;;;0.07;99.69
39823;BME280;25499;53.958;10.970;2023-01-28T08:54:23;102798.31;;;0.24;99.03
39823;BME280;25499;53.958;10.970;2023-01-28T08:56:48;102791.75;;;0.16;98.54
39823;BME280;25499;53.958;10.970;2023-01-28T08:59:15;102810.13;;;0.10;97.88
39823;BME280;25499;53.958;10.970;2023-01-28T09:01:41;102808.66;;;0.14;97.70
39823;BME280;25499;53.958;10.970;2023-01-28T09:04:06;102795.75;;;0.01;97.62
39823;BME280;25499;53.958;10.970;2023-01-28T09:06:31;102786.72;;;0.06;96.78
39823;BME280;25499;53.958;10.970;2023-01-28T09:08:58;102794.94;;;0.25;96.69
39823;BME280;25499;53.958;10.970;2023-01-28T09:11:24;102810.66;;;0.42;96.62
39823;BME280;25499;53.958;10.970;2023-01-28T09:13:50;102815.78;;;0.42;96.72
39823;BME280;25499;53.958;10.970;2023-01-28T09:16:16;102809.22;;;0.22;96.01
39823;BME280;25499;53.958;10.970;2023-01-28T09:18:41;102822.00;;;0.57;96.08
39823;BME280;25499;53.958;10.970;2023-01-28T09:21:07;102807.84;;;0.62;94.38
39823;BME280;25499;53.958;10.970;2023-01-28T09:23:37;102811.84;;;1.07;94.11
39823;BME280;25499;53.958;10.970;2023-01-28T09:26:04;102801.47;;;1.31;92.80
39823;BME280;25499;53.958;10.970;2023-01-28T09:28:30;102815.22;;;1.70;92.96
39823;BME280;25499;53.958;10.970;2023-01-28T09:31:10;102836.88;;;2.14;93.71
39823;BME280;25499;53.958;10.970;2023-01-28T09:33:37;102816.41;;;2.02;93.38
39823;BME280;25499;53.958;10.970;2023-01-28T09:36:04;102811.41;;;2.30;91.74
39823;BME280;25499;53.958;10.970;2023-01-28T09:38:30;102816.22;;;2.66;91.40
39823;BME280;25499;53.958;10.970;2023-01-28T09:40:56;102829.84;;;3.06;91.04
39823;BME280;25499;53.958;10.970;2023-01-28T09:46:03;102774.94;;;3.06;87.57
39823;BME280;25499;53.958;10.970;2023-01-28T09:48:48;102770.13;;;3.55;86.69
39823;BME280;25499;53.958;10.970;2023-01-28T09:51:31;102724.28;;;3.64;84.26
39823;BME280;25499;53.958;10.970;2023-01-28T09:54:05;102717.41;;;3.95;82.65
39823;BME280;25499;53.958;10.970;2023-01-28T09:56:39;102721.19;;;4.16;81.66
39823;BME280;25499;53.958;10.970;2023-01-28T09:59:17;102708.38;;;4.18;80.87
39823;BME280;25499;53.958;10.970;2023-01-28T10:01:49;102690.50;;;4.21;78.72
39823;BME280;25499;53.958;10.970;2023-01-28T10:10:08;102666.91;;;5.48;74.13
39823;BME280;25499;53.958;10.970;2023-01-28T10:17:47;102581.38;;;5.23;68.57
39823;BME280;25499;53.958;10.970;2023-01-28T10:20:55;102626.16;;;5.78;69.36
39823;BME280;25499;53.958;10.970;2023-01-28T10:23:31;102594.97;;;4.85;69.59
39823;BME280;25499;53.958;10.970;2023-01-28T10:26:18;102661.34;;;7.09;69.59
39823;BME280;25499;53.958;10.970;2023-01-28T10:28:50;102534.38;;;7.53;63.37
39823;BME280;25499;53.958;10.970;2023-01-28T10:31:18;102581.09;;;7.32;63.96
39823;BME280;25499;53.958;10.970;2023-01-28T10:33:44;102541.50;;;7.14;62.52
39823;BME280;25499;53.958;10.970;2023-01-28T10:36:10;102528.66;;;6.32;62.61
39823;BME280;25499;53.958;10.970;2023-01-28T10:38:35;102520.38;;;5.08;64.04
39823;BME280;25499;53.958;10.970;2023-01-28T10:41:02;102534.94;;;4.37;65.82
39823;BME280;25499;53.958;10.970;2023-01-28T10:43:36;102547.47;;;3.65;67.96
39823;BME280;25499;53.958;10.970;2023-01-28T10:48:54;102627.84;;;3.28;71.93
39823;BME280;25499;53.958;10.970;2023-01-28T10:51:38;102628.53;;;3.10;72.73
39823;BME280;25499;53.958;10.970;2023-01-28T10:54:23;102658.88;;;3.01;74.02
39823;BME280;25499;53.958;10.970;2023-01-28T10:57:01;102660.22;;;2.66;75.16
39823;BME280;25499;53.958;10.970;2023-01-28T10:59:30;102659.16;;;2.63;75.44
39823;BME280;25499;53.958;10.970;2023-01-28T11:02:01;102644.22;;;2.42;75.48
39823;BME280;25499;53.958;10.970;2023-01-28T11:04:32;102642.06;;;2.35;75.84
39823;BME280;25499;53.958;10.970;2023-01-28T11:07:00;102642.94;;;2.35;76.05
39823;BME280;25499;53.958;10.970;2023-01-28T11:09:29;102625.84;;;2.08;75.94
39823;BME280;25499;53.958;10.970;2023-01-28T11:11:56;102636.72;;;2.03;76.23
39823;BME280;25499;53.958;10.970;2023-01-28T11:14:24;102641.13;;;2.19;76.74
39823;BME280;25499;53.958;10.970;2023-01-28T11:16:52;102623.19;;;2.06;75.97
39823;BME280;25499;53.958;10.970;2023-01-28T11:19:22;102606.09;;;1.93;75.14
39823;BME280;25499;53.958;10.970;2023-01-28T11:21:53;102584.88;;;1.96;75.66
39823;BME280;25499;53.958;10.970;2023-01-28T11:24:26;102588.31;;;1.96;76.05
39823;BME280;25499;53.958;10.970;2023-01-28T11:26:54;102603.50;;;2.63;76.07
39823;BME280;25499;53.958;10.970;2023-01-28T11:29:31;102596.78;;;3.56;75.40
39823;BME280;25499;53.958;10.970;2023-01-28T11:31:59;102541.13;;;4.24;72.74
39823;BME280;25499;53.958;10.970;2023-01-28T11:34:32;102526.19;;;5.03;70.51
39823;BME280;25499;53.958;10.970;2023-01-28T11:37:09;102466.75;;;5.39;67.34
39823;BME280;25499;53.958;10.970;2023-01-28T11:39:36;102428.53;;;4.75;66.26
39823;BME280;25499;53.958;10.970;2023-01-28T11:42:12;102426.41;;;4.32;66.60
39823;BME280;25499;53.958;10.970;2023-01-28T11:44:40;102442.41;;;4.08;67.62
39823;BME280;25499;53.958;10.970;2023-01-28T11:52:59;102435.59;;;3.92;68.45
39823;BME280;25499;53.958;10.970;2023-01-28T11:55:44;102465.22;;;4.52;68.05
39823;BME280;25499;53.958;10.970;2023-01-28T12:08:56;102437.47;;;5.39;64.97
39823;BME280;25499;53.958;10.970;2023-01-28T12:11:54;102447.50;;;4.95;65.90
39823;BME280;25499;53.958;10.970;2023-01-28T12:42:30;102520.88;;;3.33;72.03
39823;BME280;25499;53.958;10.970;2023-01-28T12:47:35;102520.50;;;3.27;73.21
39823;BME280;25499;53.958;10.970;2023-01-28T12:50:13;102523.94;;;3.11;73.91
39823;BME280;25499;53.958;10.970;2023-01-28T12:52:46;102522.31;;;3.13;74.62
39823;BME280;25499;53.958;10.970;2023-01-28T12:55:21;102507.47;;;2.92;74.83
39823;BME280;25499;53.958;10.970;2023-01-28T12:57:56;102518.34;;;2.88;75.74
39823;BME280;25499;53.958;10.970;2023-01-28T13:00:29;102529.69;;;2.92;76.71
39823;BME280;25499;53.958;10.970;2023-01-28T13:05:50;102507.66;;;2.80;76.33
39823;BME280;25499;53.958;10.970;2023-01-28T13:08:24;102518.03;;;2.67;76.60
39823;BME280;25499;53.958;10.970;2023-01-28T13:10:50;102534.31;;;2.68;77.05
39823;BME280;25499;53.958;10.970;2023-01-28T13:15:58;102559.88;;;2.94;77.86
39823;BME280;25499;53.958;10.970;2023-01-28T13:21:08;102547.47;;;3.33;76.61
39823;BME280;25499;53.958;10.970;2023-01-28T13:26:51;102560.13;;;3.60;76.17
39823;BME280;25499;53.958;10.970;2023-01-28T13:31:51;102540.72;;;3.35;75.68
39823;BME280;25499;53.958;10.970;2023-01-28T13:37:28;102547.59;;;3.05;76.31
39823;BME280;25499;53.958;10.970;2023-01-28T13:40:16;102584.16;;;3.29;77.74
39823;BME280;25499;53.958;10.970;2023-01-28T13:42:42;102597.56;;;3.09;78.82
39823;BME280;25499;53.958;10.970;2023-01-28T13:47:44;102573.38;;;2.90;78.10
39823;BME280;25499;53.958;10.970;2023-01-28T13:50:22;102577.69;;;2.91;78.40
39823;BME280;25499;53.958;10.970;2023-01-28T13:55:22;102583.28;;;2.84;78.70
39823;BME280;25499;53.958;10.970;2023-01-28T14:03:39;102581.53;;;2.68;79.77
39823;BME280;25499;53.958;10.970;2023-01-28T14:19:57;102551.16;;;2.48;80.58
39823;BME280;25499;53.958;10.970;2023-01-28T14:22:23;102545.50;;;2.53;80.77
39823;BME280;25499;53.958;10.970;2023-01-28T14:24:49;102530.59;;;2.33;80.79
39823;BME280;25499;53.958;10.970;2023-01-28T14:27:21;102544.31;;;2.33;81.30
39823;BME280;25499;53.958;10.970;2023-01-28T14:32:51;102547.41;;;2.28;81.68
39823;BME280;25499;53.958;10.970;2023-01-28T14:35:28;102545.81;;;2.30;81.46
39823;BME280;25499;53.958;10.970;2023-01-28T14:37:55;102559.44;;;2.29;81.55
39823;BME280;25499;53.958;10.970;2023-01-28T14:40:21;102578.78;;;2.37;82.11
39823;BME280;25499;53.958;10.970;2023-01-28T14:42:49;102585.97;;;2.42;82.34
39823;BME280;25499;53.958;10.970;2023-01-28T14:48:33;102590.59;;;2.33;82.65
39823;BME280;25499;53.958;10.970;2023-01-28T14:54:23;102594.84;;;2.33;83.00
39823;BME280;25499;53.958;10.970;2023-01-28T14:57:23;102594.66;;;2.30;83.04
39823;BME280;25499;53.958;10.970;2023-01-28T14:59:54;102599.50;;;2.25;83.58
39823;BME280;25499;53.958;10.970;2023-01-28T15:02:27;102602.56;;;2.33;84.18
39823;BME280;25499;53.958;10.970;2023-01-28T15:04:53;102604.34;;;2.20;84.36
39823;BME280;25499;53.958;10.970;2023-01-28T15:07:24;102595.66;;;2.18;84.55
39823;BME280;25499;53.958;10.970;2023-01-28T15:10:14;102587.09;;;2.18;84.70
39823;BME280;25499;53.958;10.970;2023-01-28T15:12:43;102584.41;;;2.16;84.87
39823;BME280;25499;53.958;10.970;2023-01-28T15:15:33;102586.13;;;2.31;85.14
39823;BME280;25499;53.958;10.970;2023-01-28T15:18:21;102576.72;;;2.16;85.15
39823;BME280;25499;53.958;10.970;2023-01-28T15:20:51;102560.91;;;2.10;85.36
39823;BME280;25499;53.958;10.970;2023-01-28T15:23:26;102555.31;;;2.02;85.30
39823;BME280;25499;53.958;10.970;2023-01-28T15:25:52;102555.81;;;1.97;85.51
39823;BME280;25499;53.958;10.970;2023-01-28T15:28:25;102558.16;;;1.79;85.78
39823;BME280;25499;53.958;10.970;2023-01-28T15:30:51;102562.00;;;1.85;86.15
39823;BME280;25499;53.958;10.970;2023-01-28T15:33:20;102558.75;;;1.75;86.60
39823;BME280;25499;53.958;10.970;2023-01-28T15:35:47;102570.38;;;1.83;86.87
39823;BME280;25499;53.958;10.970;2023-01-28T15:38:13;102572.38;;;1.74;87.34
39823;BME280;25499;53.958;10.970;2023-01-28T15:40:43;102576.81;;;1.76;87.53
39823;BME280;25499;53.958;10.970;2023-01-28T15:43:51;102564.97;;;1.78;87.99
39823;BME280;25499;53.958;10.970;2023-01-28T15:45:59;102555.94;;;1.85;88.14
39823;BME280;25499;53.958;10.970;2023-01-28T15:48:28;102553.56;;;1.88;88.32
39823;BME280;25499;53.958;10.970;2023-01-28T15:50:59;102539.66;;;1.84;88.33
39823;BME280;25499;53.958;10.970;2023-01-28T15:53:34;102534.53;;;1.84;88.41
39823;BME280;25499;53.958;10.970;2023-01-28T15:56:08;102538.13;;;1.73;88.49
39823;BME280;25499;53.958;10.970;2023-01-28T15:58:34;102553.91;;;1.79;88.86
39823;BME280;25499;53.958;10.970;2023-01-28T16:01:21;102551.53;;;1.82;89.24
39823;BME280;25499;53.958;10.970;2023-01-28T16:04:01;102555.16;;;1.86;89.64
39823;BME280;25499;53.958;10.970;2023-01-28T16:06:37;102559.03;;;1.79;89.79
39823;BME280;25499;53.958;10.970;2023-01-28T16:09:06;102566.16;;;1.83;89.82
39823;BME280;25499;53.958;10.970;2023-01-28T16:11:39;102559.91;;;1.80;89.74
39823;BME280;25499;53.958;10.970;2023-01-28T16:14:28;102549.56;;;1.78;90.10
39823;BME280;25499;53.958;10.970;2023-01-28T16:16:55;102545.22;;;1.77;89.95
39823;BME280;25499;53.958;10.970;2023-01-28T16:21:59;102555.91;;;1.70;90.19
39823;BME280;25499;53.958;10.970;2023-01-28T16:24:28;102560.13;;;1.70;90.28
39823;BME280;25499;53.958;10.970;2023-01-28T16:29:26;102552.63;;;1.73;90.50
39823;BME280;25499;53.958;10.970;2023-01-28T16:31:53;102553.53;;;1.73;90.59
39823;BME280;25499;53.958;10.970;2023-01-28T16:34:18;102543.94;;;1.71;90.64
39823;BME280;25499;53.958;10.970;2023-01-28T16:36:44;102533.38;;;1.66;91.04
39823;BME280;25499;53.958;10.970;2023-01-28T16:39:10;102535.84;;;1.64;91.26
39823;BME280;25499;53.958;10.970;2023-01-28T16:41:43;102533.72;;;1.57;91.53
39823;BME280;25499;53.958;10.970;2023-01-28T16:44:13;102541.41;;;1.57;91.74
39823;BME280;25499;53.958;10.970;2023-01-28T16:46:39;102548.75;;;1.51;92.14
39823;BME280;25499;53.958;10.970;2023-01-28T16:49:05;102553.47;;;1.58;92.33
39823;BME280;25499;53.958;10.970;2023-01-28T16:51:30;102547.25;;;1.55;92.22
39823;BME280;25499;53.958;10.970;2023-01-28T16:53:56;102538.84;;;1.57;92.03
39823;BME280;25499;53.958;10.970;2023-01-28T16:56:24;102539.56;;;1.55;92.23
39823;BME280;25499;53.958;10.970;2023-01-28T16:58:51;102539.13;;;1.62;92.26
39823;BME280;25499;53.958;10.970;2023-01-28T17:01:17;102540.53;;;1.57;91.92
39823;BME280;25499;53.958;10.970;2023-01-28T17:03:42;102539.44;;;1.53;92.04
39823;BME280;25499;53.958;10.970;2023-01-28T17:06:13;102542.81;;;1.52;92.28
39823;BME280;25499;53.958;10.970;2023-01-28T17:08:39;102548.78;;;1.66;92.60
39823;BME280;25499;53.958;10.970;2023-01-28T17:11:05;102551.78;;;1.59;92.40
39823;BME280;25499;53.958;10.970;2023-01-28T17:13:31;102552.50;;;1.56;92.46
39823;BME280;25499;53.958;10.970;2023-01-28T17:16:00;102542.91;;;1.54;92.72
39823;BME280;25499;53.958;10.970;2023-01-28T17:18:27;102541.09;;;1.53;92.69
39823;BME280;25499;53.958;10.970;2023-01-28T17:20:52;102533.50;;;1.54;92.80
39823;BME280;25499;53.958;10.970;2023-01-28T17:23:17;102537.56;;;1.51;92.72
39823;BME280;25499;53.958;10.970;2023-01-28T17:25:47;102532.34;;;1.49;92.72
39823;BME280;25499;53.958;10.970;2023-01-28T17:28:14;102526.41;;;1.50;92.87
39823;BME280;25499;53.958;10.970;2023-01-28T17:30:40;102526.31;;;1.48;92.80
39823;BME280;25499;53.958;10.970;2023-01-28T17:33:06;102523.09;;;1.38;93.03
39823;BME280;25499;53.958;10.970;2023-01-28T17:35:32;102529.09;;;1.38;93.11
39823;BME280;25499;53.958;10.970;2023-01-28T17:38:00;102523.38;;;1.29;93.21
39823;BME280;25499;53.958;10.970;2023-01-28T17:40:25;102526.13;;;1.32;93.55
39823;BME280;25499;53.958;10.970;2023-01-28T17:42:51;102531.28;;;1.32;93.56
39823;BME280;25499;53.958;10.970;2023-01-28T17:45:16;102540.25;;;1.25;93.91
39823;BME280;25499;53.958;10.970;2023-01-28T17:47:42;102548.16;;;1.42;94.19
39823;BME280;25499;53.958;10.970;2023-01-28T17:50:07;102545.47;;;1.27;94.09
39823;BME280;25499;53.958;10.970;2023-01-28T17:52:33;102551.31;;;1.38;94.50
39823;BME280;25499;53.958;10.970;2023-01-28T17:54:59;102545.47;;;1.40;94.53
39823;BME280;25499;53.958;10.970;2023-01-28T17:57:24;102551.13;;;1.35;94.48
39823;BME280;25499;53.958;10.970;2023-01-28T17:59:49;102561.06;;;1.43;94.59
39823;BME280;25499;53.958;10.970;2023-01-28T18:02:15;102559.78;;;1.50;94.71
39823;BME280;25499;53.958;10.970;2023-01-28T18:04:42;102559.00;;;1.51;94.51
39823;BME280;25499;53.958;10.970;2023-01-28T18:07:08;102569.34;;;1.53;94.62
39823;BME280;25499;53.958;10.970;2023-01-28T18:09:41;102566.19;;;1.57;94.89
39823;BME280;25499;53.958;10.970;2023-01-28T18:12:09;102562.75;;;1.56;94.84
39823;BME280;25499;53.958;10.970;2023-01-28T18:14:36;102557.13;;;1.48;94.92
39823;BME280;25499;53.958;10.970;2023-01-28T18:17:02;102552.88;;;1.49;94.96
39823;BME280;25499;53.958;10.970;2023-01-28T18:19:28;102552.75;;;1.47;94.90
39823;BME280;25499;53.958;10.970;2023-01-28T18:21:53;102553.78;;;1.49;94.88
39823;BME280;25499;53.958;10.970;2023-01-28T18:24:23;102561.94;;;1.57;94.83
39823;BME280;25499;53.958;10.970;2023-01-28T18:26:50;102557.97;;;1.62;94.98
39823;BME280;25499;53.958;10.970;2023-01-28T18:29:19;102544.69;;;1.55;94.87
39823;BME280;25499;53.958;10.970;2023-01-28T18:31:46;102544.69;;;1.55;94.88
39823;BME280;25499;53.958;10.970;2023-01-28T18:34:12;102542.88;;;1.67;94.84
39823;BME280;25499;53.958;10.970;2023-01-28T18:36:38;102533.72;;;1.57;94.85
39823;BME280;25499;53.958;10.970;2023-01-28T18:39:04;102526.88;;;1.58;95.06
39823;BME280;25499;53.958;10.970;2023-01-28T18:41:30;102515.44;;;1.53;95.32
39823;BME280;25499;53.958;10.970;2023-01-28T18:43:55;102515.44;;;1.53;95.53
39823;BME280;25499;53.958;10.970;2023-01-28T18:46:20;102516.16;;;1.50;95.49
39823;BME280;25499;53.958;10.970;2023-01-28T18:48:46;102517.44;;;1.57;95.88
39823;BME280;25499;53.958;10.970;2023-01-28T18:51:12;102512.81;;;1.51;95.92
39823;BME280;25499;53.958;10.970;2023-01-28T18:53:38;102499.78;;;1.48;96.09
39823;BME280;25499;53.958;10.970;2023-01-28T18:56:05;102503.22;;;1.48;96.27
39823;BME280;25499;53.958;10.970;2023-01-28T18:58:31;102498.97;;;1.49;96.37
39823;BME280;25499;53.958;10.970;2023-01-28T19:00:58;102500.03;;;1.53;96.66
39823;BME280;25499;53.958;10.970;2023-01-28T19:03:23;102505.38;;;1.56;96.85
39823;BME280;25499;53.958;10.970;2023-01-28T19:05:49;102505.78;;;1.48;97.14
39823;BME280;25499;53.958;10.970;2023-01-28T19:08:15;102499.16;;;1.52;97.33
39823;BME280;25499;53.958;10.970;2023-01-28T19:10:41;102501.94;;;1.55;97.67
39823;BME280;25499;53.958;10.970;2023-01-28T19:13:06;102503.63;;;1.55;97.82
39823;BME280;25499;53.958;10.970;2023-01-28T19:15:32;102505.06;;;1.64;98.01
39823;BME280;25499;53.958;10.970;2023-01-28T19:17:58;102509.72;;;1.57;98.34
39823;BME280;25499;53.958;10.970;2023-01-28T19:20:23;102514.25;;;1.61;98.42
39823;BME280;25499;53.958;10.970;2023-01-28T19:22:49;102513.47;;;1.62;98.55
39823;BME280;25499;53.958;10.970;2023-01-28T19:25:16;102510.09;;;1.63;98.52
39823;BME280;25499;53.958;10.970;2023-01-28T19:27:42;102512.06;;;1.67;98.98
39823;BME280;25499;53.958;10.970;2023-01-28T19:30:08;102510.38;;;1.67;99.11
39823;BME280;25499;53.958;10.970;2023-01-28T19:32:33;102506.06;;;1.66;99.08
39823;BME280;25499;53.958;10.970;2023-01-28T19:34:59;102511.19;;;1.66;99.16
39823;BME280;25499;53.958;10.970;2023-01-28T19:37:24;102505.34;;;1.69;99.34
39823;BME280;25499;53.958;10.970;2023-01-28T19:39:49;102505.63;;;1.74;99.48
39823;BME280;25499;53.958;10.970;2023-01-28T19:42:15;102500.31;;;1.71;99.48
39823;BME280;25499;53.958;10.970;2023-01-28T19:44:40;102504.19;;;1.64;99.63
39823;BME280;25499;53.958;10.970;2023-01-28T19:47:06;102511.25;;;1.68;99.81
39823;BME280;25499;53.958;10.970;2023-01-28T19:49:32;102501.81;;;1.67;99.79
39823;BME280;25499;53.958;10.970;2023-01-28T19:51:58;102508.66;;;1.81;99.94
39823;BME280;25499;53.958;10.970;2023-01-28T19:54:24;102503.03;;;1.87;99.86
39823;BME280;25499;53.958;10.970;2023-01-28T19:56:49;102505.00;;;1.78;99.94
39823;BME280;25499;53.958;10.970;2023-01-28T19:59:15;102502.75;;;1.82;99.92
39823;BME280;25499;53.958;10.970;2023-01-28T20:01:41;102506.38;;;1.86;100.00
39823;BME280;25499;53.958;10.970;2023-01-28T20:04:06;102497.94;;;1.74;100.00
39823;BME280;25499;53.958;10.970;2023-01-28T20:06:33;102500.38;;;1.85;100.00
39823;BME280;25499;53.958;10.970;2023-01-28T20:09:05;102491.84;;;1.86;100.00
39823;BME280;25499;53.958;10.970;2023-01-28T20:11:34;102489.63;;;1.78;100.00
39823;BME280;25499;53.958;10.970;2023-01-28T20:14:00;102478.47;;;1.77;100.00
39823;BME280;25499;53.958;10.970;2023-01-28T20:16:28;102482.53;;;1.74;100.00
39823;BME280;25499;53.958;10.970;2023-01-28T20:18:59;102484.84;;;1.84;100.00
39823;BME280;25499;53.958;10.970;2023-01-28T20:21:26;102481.56;;;1.86;100.00
39823;BME280;25499;53.958;10.970;2023-01-28T20:23:52;102471.72;;;1.79;100.00
39823;BME280;25499;53.958;10.970;2023-01-28T20:26:21;102480.97;;;1.91;100.00
39823;BME280;25499;53.958;10.970;2023-01-28T20:28:48;102478.56;;;1.79;100.00
39823;BME280;25499;53.958;10.970;2023-01-28T20:31:14;102474.91;;;1.75;100.00
39823;BME280;25499;53.958;10.970;2023-01-28T20:33:39;102470.44;;;1.86;100.00
39823;BME280;25499;53.958;10.970;2023-01-28T20:36:07;102462.09;;;1.75;100.00
39823;BME280;25499;53.958;10.970;2023-01-28T20:38:37;102458.47;;;1.86;100.00
39823;BME280;25499;53.958;10.970;2023-01-28T20:41:07;102466.16;;;1.86;100.00
39823;BME280;25499;53.958;10.970;2023-01-28T20:43:34;102472.53;;;1.78;100.00
39823;BME280;25499;53.958;10.970;2023-01-28T20:46:02;102461.13;;;1.88;100.00
39823;BME280;25499;53.958;10.970;2023-01-28T20:48:27;102459.09;;;1.82;100.00
39823;BME280;25499;53.958;10.970;2023-01-28T20:50:53;102459.28;;;1.85;100.00
39823;BME280;25499;53.958;10.970;2023-01-28T20:53:18;102457.44;;;1.98;100.00
39823;BME280;25499;53.958;10.970;2023-01-28T20:55:43;102448.56;;;1.93;100.00
39823;BME280;25499;53.958;10.970;2023-01-28T20:58:09;102451.13;;;1.93;100.00
39823;BME280;25499;53.958;10.970;2023-01-28T21:00:34;102460.16;;;1.86;100.00
39823;BME280;25499;53.958;10.970;2023-01-28T21:02:59;102453.50;;;1.90;100.00
39823;BME280;25499;53.958;10.970;2023-01-28T21:05:25;102456.81;;;1.87;100.00
39823;BME280;25499;53.958;10.970;2023-01-28T21:07:50;102452.00;;;1.93;100.00
39823;BME280;25499;53.958;10.970;2023-01-28T21:10:16;102440.34;;;1.83;100.00
39823;BME280;25499;53.958;10.970;2023-01-28T21:12:41;102443.06;;;1.86;100.00
